sensor_id;sensor_type;location;lat;lon;timestamp;P1;durP1;ratioP1;P2;durP2;ratioP2
37231;SDS011;23125;48.156;15.954;2022-12-07T00:01:36;11.82;;;6.78;;
37231;SDS011;23125;48.156;15.954;2022-12-07T00:04:04;9.82;;;6.47;;
37231;SDS011;23125;48.156;15.954;2022-12-07T00:06:37;10.98;;;6.13;;
37231;SDS011;23125;48.156;15.954;2022-12-07T00:09:06;9.02;;;6.28;;
37231;SDS011;23125;48.156;15.954;2022-12-07T00:11:34;13.57;;;7.00;;
37231;SDS011;23125;48.156;15.954;2022-12-07T00:14:01;10.35;;;6.05;;
37231;SDS011;23125;48.156;15.954;2022-12-07T00:16:30;10.18;;;6.38;;
37231;SDS011;23125;48.156;15.954;2022-12-07T00:18:58;10.25;;;6.57;;
37231;SDS011;23125;48.156;15.954;2022-12-07T00:21:25;10.52;;;6.75;;
37231;SDS011;23125;48.156;15.954;2022-12-07T00:23:53;10.95;;;7.07;;
37231;SDS011;23125;48.156;15.954;2022-12-07T00:26:22;11.25;;;7.30;;
37231;SDS011;23125;48.156;15.954;2022-12-07T00:29:00;10.18;;;7.38;;
37231;SDS011;23125;48.156;15.954;2022-12-07T00:31:33;11.75;;;7.85;;
37231;SDS011;23125;48.156;15.954;2022-12-07T00:34:03;11.30;;;8.02;;
37231;SDS011;23125;48.156;15.954;2022-12-07T00:36:31;11.15;;;7.72;;
37231;SDS011;23125;48.156;15.954;2022-12-07T00:38:58;11.90;;;7.40;;
37231;SDS011;23125;48.156;15.954;2022-12-07T00:41:25;11.70;;;7.70;;
37231;SDS011;23125;48.156;15.954;2022-12-07T00:43:52;13.73;;;8.35;;
37231;SDS011;23125;48.156;15.954;2022-12-07T00:46:19;13.43;;;8.60;;
37231;SDS011;23125;48.156;15.954;2022-12-07T00:48:46;13.52;;;7.80;;
37231;SDS011;23125;48.156;15.954;2022-12-07T00:51:13;14.18;;;8.93;;
37231;SDS011;23125;48.156;15.954;2022-12-07T00:53:40;14.48;;;8.85;;
37231;SDS011;23125;48.156;15.954;2022-12-07T00:58:40;12.95;;;8.27;;
37231;SDS011;23125;48.156;15.954;2022-12-07T01:01:06;16.30;;;10.23;;
37231;SDS011;23125;48.156;15.954;2022-12-07T01:03:34;16.60;;;9.95;;
37231;SDS011;23125;48.156;15.954;2022-12-07T01:06:02;15.05;;;9.23;;
37231;SDS011;23125;48.156;15.954;2022-12-07T01:08:29;14.75;;;9.70;;
37231;SDS011;23125;48.156;15.954;2022-12-07T01:10:59;15.98;;;9.60;;
37231;SDS011;23125;48.156;15.954;2022-12-07T01:13:26;14.60;;;9.20;;
37231;SDS011;23125;48.156;15.954;2022-12-07T01:15:55;19.23;;;11.45;;
37231;SDS011;23125;48.156;15.954;2022-12-07T01:18:25;16.05;;;9.40;;
37231;SDS011;23125;48.156;15.954;2022-12-07T01:21:26;15.98;;;9.98;;
37231;SDS011;23125;48.156;15.954;2022-12-07T01:23:46;13.80;;;9.80;;
37231;SDS011;23125;48.156;15.954;2022-12-07T01:26:14;17.88;;;10.05;;
37231;SDS011;23125;48.156;15.954;2022-12-07T01:28:42;17.38;;;11.30;;
37231;SDS011;23125;48.156;15.954;2022-12-07T01:31:13;15.57;;;9.82;;
37231;SDS011;23125;48.156;15.954;2022-12-07T01:33:42;18.30;;;11.27;;
37231;SDS011;23125;48.156;15.954;2022-12-07T01:36:17;15.95;;;9.93;;
37231;SDS011;23125;48.156;15.954;2022-12-07T01:38:53;14.27;;;9.90;;
37231;SDS011;23125;48.156;15.954;2022-12-07T01:41:21;15.10;;;9.65;;
37231;SDS011;23125;48.156;15.954;2022-12-07T01:44:09;15.40;;;10.00;;
37231;SDS011;23125;48.156;15.954;2022-12-07T01:46:35;14.57;;;10.00;;
37231;SDS011;23125;48.156;15.954;2022-12-07T01:49:02;17.63;;;9.43;;
37231;SDS011;23125;48.156;15.954;2022-12-07T01:51:31;16.70;;;9.82;;
37231;SDS011;23125;48.156;15.954;2022-12-07T01:53:57;17.02;;;10.27;;
37231;SDS011;23125;48.156;15.954;2022-12-07T01:56:25;16.55;;;9.93;;
37231;SDS011;23125;48.156;15.954;2022-12-07T01:58:53;19.50;;;10.52;;
37231;SDS011;23125;48.156;15.954;2022-12-07T02:01:21;15.82;;;9.75;;
37231;SDS011;23125;48.156;15.954;2022-12-07T02:03:48;14.77;;;10.02;;
37231;SDS011;23125;48.156;15.954;2022-12-07T02:06:16;18.38;;;10.93;;
37231;SDS011;23125;48.156;15.954;2022-12-07T02:08:46;15.95;;;9.70;;
37231;SDS011;23125;48.156;15.954;2022-12-07T02:11:12;18.05;;;10.70;;
37231;SDS011;23125;48.156;15.954;2022-12-07T02:13:39;20.05;;;10.48;;
37231;SDS011;23125;48.156;15.954;2022-12-07T02:22:01;17.35;;;10.10;;
37231;SDS011;23125;48.156;15.954;2022-12-07T02:27:28;16.80;;;10.15;;
37231;SDS011;23125;48.156;15.954;2022-12-07T02:30:14;17.52;;;10.43;;
37231;SDS011;23125;48.156;15.954;2022-12-07T02:32:55;14.25;;;9.40;;
37231;SDS011;23125;48.156;15.954;2022-12-07T02:35:28;18.15;;;10.70;;
37231;SDS011;23125;48.156;15.954;2022-12-07T02:40:48;15.93;;;9.73;;
37231;SDS011;23125;48.156;15.954;2022-12-07T02:43:20;16.13;;;8.35;;
37231;SDS011;23125;48.156;15.954;2022-12-07T02:45:50;13.70;;;8.23;;
37231;SDS011;23125;48.156;15.954;2022-12-07T02:48:19;13.23;;;8.47;;
37231;SDS011;23125;48.156;15.954;2022-12-07T02:50:52;15.50;;;8.85;;
37231;SDS011;23125;48.156;15.954;2022-12-07T02:53:31;13.90;;;8.55;;
37231;SDS011;23125;48.156;15.954;2022-12-07T02:55:58;12.07;;;7.95;;
37231;SDS011;23125;48.156;15.954;2022-12-07T03:04:52;13.10;;;8.55;;
37231;SDS011;23125;48.156;15.954;2022-12-07T03:07:29;14.30;;;7.72;;
37231;SDS011;23125;48.156;15.954;2022-12-07T03:10:03;13.25;;;7.70;;
37231;SDS011;23125;48.156;15.954;2022-12-07T03:15:35;13.30;;;8.02;;
37231;SDS011;23125;48.156;15.954;2022-12-07T03:18:21;13.48;;;7.63;;
37231;SDS011;23125;48.156;15.954;2022-12-07T03:20:50;12.80;;;8.18;;
37231;SDS011;23125;48.156;15.954;2022-12-07T03:23:19;13.85;;;8.23;;
37231;SDS011;23125;48.156;15.954;2022-12-07T03:25:49;15.20;;;9.57;;
37231;SDS011;23125;48.156;15.954;2022-12-07T03:28:22;19.13;;;10.77;;
37231;SDS011;23125;48.156;15.954;2022-12-07T03:33:34;14.27;;;9.18;;
37231;SDS011;23125;48.156;15.954;2022-12-07T03:36:10;15.57;;;9.80;;
37231;SDS011;23125;48.156;15.954;2022-12-07T03:38:45;14.50;;;9.20;;
37231;SDS011;23125;48.156;15.954;2022-12-07T03:41:33;14.10;;;8.40;;
37231;SDS011;23125;48.156;15.954;2022-12-07T03:44:02;11.90;;;7.82;;
37231;SDS011;23125;48.156;15.954;2022-12-07T03:46:34;14.32;;;7.75;;
37231;SDS011;23125;48.156;15.954;2022-12-07T03:54:39;14.40;;;8.95;;
37231;SDS011;23125;48.156;15.954;2022-12-07T03:57:27;12.75;;;7.82;;
37231;SDS011;23125;48.156;15.954;2022-12-07T03:59:55;12.70;;;7.93;;
37231;SDS011;23125;48.156;15.954;2022-12-07T04:02:23;14.93;;;8.63;;
37231;SDS011;23125;48.156;15.954;2022-12-07T04:04:52;14.15;;;8.35;;
37231;SDS011;23125;48.156;15.954;2022-12-07T04:07:18;11.75;;;6.88;;
37231;SDS011;23125;48.156;15.954;2022-12-07T04:09:44;15.45;;;7.30;;
37231;SDS011;23125;48.156;15.954;2022-12-07T04:12:10;14.32;;;8.20;;
37231;SDS011;23125;48.156;15.954;2022-12-07T04:14:36;13.02;;;7.55;;
37231;SDS011;23125;48.156;15.954;2022-12-07T04:17:02;13.57;;;7.15;;
37231;SDS011;23125;48.156;15.954;2022-12-07T04:19:29;13.48;;;7.53;;
37231;SDS011;23125;48.156;15.954;2022-12-07T04:21:57;12.30;;;7.32;;
37231;SDS011;23125;48.156;15.954;2022-12-07T04:24:25;13.20;;;7.32;;
37231;SDS011;23125;48.156;15.954;2022-12-07T04:26:52;12.25;;;7.50;;
37231;SDS011;23125;48.156;15.954;2022-12-07T04:29:18;11.73;;;7.63;;
37231;SDS011;23125;48.156;15.954;2022-12-07T04:31:45;12.38;;;6.95;;
37231;SDS011;23125;48.156;15.954;2022-12-07T04:34:11;13.45;;;6.65;;
37231;SDS011;23125;48.156;15.954;2022-12-07T04:36:38;15.52;;;8.07;;
37231;SDS011;23125;48.156;15.954;2022-12-07T04:39:05;12.38;;;7.70;;
37231;SDS011;23125;48.156;15.954;2022-12-07T04:41:32;17.40;;;10.77;;
37231;SDS011;23125;48.156;15.954;2022-12-07T04:44:01;21.38;;;11.60;;
37231;SDS011;23125;48.156;15.954;2022-12-07T04:46:30;11.63;;;7.18;;
37231;SDS011;23125;48.156;15.954;2022-12-07T04:48:56;11.80;;;7.00;;
37231;SDS011;23125;48.156;15.954;2022-12-07T04:51:27;12.82;;;8.02;;
37231;SDS011;23125;48.156;15.954;2022-12-07T04:53:54;12.27;;;6.60;;
37231;SDS011;23125;48.156;15.954;2022-12-07T04:56:22;11.38;;;7.38;;
37231;SDS011;23125;48.156;15.954;2022-12-07T04:58:48;10.40;;;5.65;;
37231;SDS011;23125;48.156;15.954;2022-12-07T05:01:16;10.93;;;6.70;;
37231;SDS011;23125;48.156;15.954;2022-12-07T05:03:43;10.52;;;6.03;;
37231;SDS011;23125;48.156;15.954;2022-12-07T05:06:09;9.15;;;5.82;;
37231;SDS011;23125;48.156;15.954;2022-12-07T05:08:37;9.93;;;6.18;;
37231;SDS011;23125;48.156;15.954;2022-12-07T05:11:03;8.65;;;5.57;;
37231;SDS011;23125;48.156;15.954;2022-12-07T05:13:31;10.27;;;5.75;;
37231;SDS011;23125;48.156;15.954;2022-12-07T05:15:57;10.23;;;6.30;;
37231;SDS011;23125;48.156;15.954;2022-12-07T05:18:24;10.50;;;6.43;;
37231;SDS011;23125;48.156;15.954;2022-12-07T05:20:50;12.65;;;6.00;;
37231;SDS011;23125;48.156;15.954;2022-12-07T05:23:17;12.50;;;5.72;;
37231;SDS011;23125;48.156;15.954;2022-12-07T05:25:43;9.45;;;5.55;;
37231;SDS011;23125;48.156;15.954;2022-12-07T05:28:10;9.75;;;6.05;;
37231;SDS011;23125;48.156;15.954;2022-12-07T05:30:36;9.48;;;5.70;;
37231;SDS011;23125;48.156;15.954;2022-12-07T05:33:01;9.48;;;5.88;;
37231;SDS011;23125;48.156;15.954;2022-12-07T05:35:28;11.07;;;6.95;;
37231;SDS011;23125;48.156;15.954;2022-12-07T05:37:55;10.52;;;6.47;;
37231;SDS011;23125;48.156;15.954;2022-12-07T05:40:22;12.82;;;7.10;;
37231;SDS011;23125;48.156;15.954;2022-12-07T05:42:48;13.10;;;7.47;;
37231;SDS011;23125;48.156;15.954;2022-12-07T05:45:14;11.65;;;7.07;;
37231;SDS011;23125;48.156;15.954;2022-12-07T05:47:40;15.90;;;8.52;;
37231;SDS011;23125;48.156;15.954;2022-12-07T05:50:06;11.32;;;6.72;;
37231;SDS011;23125;48.156;15.954;2022-12-07T05:52:32;11.13;;;6.50;;
37231;SDS011;23125;48.156;15.954;2022-12-07T05:54:58;9.35;;;5.97;;
37231;SDS011;23125;48.156;15.954;2022-12-07T05:57:24;11.75;;;6.68;;
37231;SDS011;23125;48.156;15.954;2022-12-07T05:59:50;9.80;;;6.47;;
37231;SDS011;23125;48.156;15.954;2022-12-07T06:02:16;9.88;;;6.38;;
37231;SDS011;23125;48.156;15.954;2022-12-07T06:04:44;10.48;;;6.60;;
37231;SDS011;23125;48.156;15.954;2022-12-07T06:07:12;8.82;;;6.25;;
37231;SDS011;23125;48.156;15.954;2022-12-07T06:09:39;14.13;;;9.15;;
37231;SDS011;23125;48.156;15.954;2022-12-07T06:12:06;13.25;;;8.05;;
37231;SDS011;23125;48.156;15.954;2022-12-07T06:14:52;28.60;;;12.52;;
37231;SDS011;23125;48.156;15.954;2022-12-07T06:17:18;24.27;;;11.63;;
37231;SDS011;23125;48.156;15.954;2022-12-07T06:19:44;33.75;;;14.13;;
37231;SDS011;23125;48.156;15.954;2022-12-07T06:22:10;11.48;;;6.82;;
37231;SDS011;23125;48.156;15.954;2022-12-07T06:24:37;12.55;;;7.40;;
37231;SDS011;23125;48.156;15.954;2022-12-07T06:27:03;12.85;;;6.75;;
37231;SDS011;23125;48.156;15.954;2022-12-07T06:29:31;12.65;;;6.97;;
37231;SDS011;23125;48.156;15.954;2022-12-07T06:31:58;9.13;;;6.18;;
37231;SDS011;23125;48.156;15.954;2022-12-07T06:34:25;10.27;;;6.18;;
37231;SDS011;23125;48.156;15.954;2022-12-07T06:36:52;7.93;;;5.30;;
37231;SDS011;23125;48.156;15.954;2022-12-07T06:39:23;9.45;;;5.80;;
37231;SDS011;23125;48.156;15.954;2022-12-07T06:41:51;8.15;;;5.47;;
37231;SDS011;23125;48.156;15.954;2022-12-07T06:44:19;10.45;;;5.68;;
37231;SDS011;23125;48.156;15.954;2022-12-07T06:46:47;7.78;;;4.78;;
37231;SDS011;23125;48.156;15.954;2022-12-07T06:49:13;7.85;;;5.47;;
37231;SDS011;23125;48.156;15.954;2022-12-07T06:51:39;7.70;;;4.97;;
37231;SDS011;23125;48.156;15.954;2022-12-07T06:54:09;10.20;;;6.03;;
37231;SDS011;23125;48.156;15.954;2022-12-07T06:56:36;10.55;;;5.22;;
37231;SDS011;23125;48.156;15.954;2022-12-07T06:59:03;11.13;;;5.95;;
37231;SDS011;23125;48.156;15.954;2022-12-07T07:01:31;8.82;;;5.47;;
37231;SDS011;23125;48.156;15.954;2022-12-07T07:03:58;8.68;;;5.35;;
37231;SDS011;23125;48.156;15.954;2022-12-07T07:06:24;9.18;;;5.88;;
37231;SDS011;23125;48.156;15.954;2022-12-07T07:08:50;10.57;;;5.85;;
37231;SDS011;23125;48.156;15.954;2022-12-07T07:11:16;7.70;;;5.32;;
37231;SDS011;23125;48.156;15.954;2022-12-07T07:13:42;8.27;;;5.53;;
37231;SDS011;23125;48.156;15.954;2022-12-07T07:16:09;7.00;;;5.20;;
37231;SDS011;23125;48.156;15.954;2022-12-07T07:18:35;8.07;;;5.22;;
37231;SDS011;23125;48.156;15.954;2022-12-07T07:21:02;7.38;;;5.28;;
37231;SDS011;23125;48.156;15.954;2022-12-07T07:23:28;9.93;;;6.10;;
37231;SDS011;23125;48.156;15.954;2022-12-07T07:25:54;7.07;;;4.95;;
37231;SDS011;23125;48.156;15.954;2022-12-07T07:28:20;8.00;;;5.32;;
37231;SDS011;23125;48.156;15.954;2022-12-07T07:30:46;9.38;;;5.93;;
37231;SDS011;23125;48.156;15.954;2022-12-07T07:33:12;7.18;;;5.43;;
37231;SDS011;23125;48.156;15.954;2022-12-07T07:35:38;8.05;;;4.72;;
37231;SDS011;23125;48.156;15.954;2022-12-07T07:38:04;7.43;;;4.80;;
37231;SDS011;23125;48.156;15.954;2022-12-07T07:40:31;9.18;;;5.05;;
37231;SDS011;23125;48.156;15.954;2022-12-07T07:42:57;8.13;;;4.70;;
37231;SDS011;23125;48.156;15.954;2022-12-07T07:45:24;7.97;;;5.20;;
37231;SDS011;23125;48.156;15.954;2022-12-07T07:47:52;7.78;;;5.25;;
37231;SDS011;23125;48.156;15.954;2022-12-07T07:50:18;6.82;;;4.70;;
37231;SDS011;23125;48.156;15.954;2022-12-07T07:52:45;8.40;;;5.25;;
37231;SDS011;23125;48.156;15.954;2022-12-07T07:55:11;7.10;;;4.88;;
37231;SDS011;23125;48.156;15.954;2022-12-07T07:57:37;6.70;;;4.22;;
37231;SDS011;23125;48.156;15.954;2022-12-07T08:00:06;6.68;;;4.65;;
37231;SDS011;23125;48.156;15.954;2022-12-07T08:02:34;8.23;;;4.45;;
37231;SDS011;23125;48.156;15.954;2022-12-07T08:05:00;7.57;;;5.55;;
37231;SDS011;23125;48.156;15.954;2022-12-07T08:07:27;7.55;;;4.80;;
37231;SDS011;23125;48.156;15.954;2022-12-07T08:09:53;8.00;;;4.60;;
37231;SDS011;23125;48.156;15.954;2022-12-07T08:12:19;6.90;;;4.78;;
37231;SDS011;23125;48.156;15.954;2022-12-07T08:14:45;6.05;;;4.22;;
37231;SDS011;23125;48.156;15.954;2022-12-07T08:17:12;6.88;;;5.30;;
37231;SDS011;23125;48.156;15.954;2022-12-07T08:19:38;7.07;;;4.70;;
37231;SDS011;23125;48.156;15.954;2022-12-07T08:22:04;6.07;;;4.28;;
37231;SDS011;23125;48.156;15.954;2022-12-07T08:24:32;7.05;;;5.30;;
37231;SDS011;23125;48.156;15.954;2022-12-07T08:26:59;6.25;;;4.63;;
37231;SDS011;23125;48.156;15.954;2022-12-07T08:29:25;6.47;;;4.68;;
37231;SDS011;23125;48.156;15.954;2022-12-07T08:31:51;7.63;;;5.20;;
37231;SDS011;23125;48.156;15.954;2022-12-07T08:34:18;8.02;;;5.57;;
37231;SDS011;23125;48.156;15.954;2022-12-07T08:36:43;10.32;;;5.72;;
37231;SDS011;23125;48.156;15.954;2022-12-07T08:39:09;16.77;;;6.68;;
37231;SDS011;23125;48.156;15.954;2022-12-07T08:41:35;13.10;;;7.63;;
37231;SDS011;23125;48.156;15.954;2022-12-07T08:44:01;15.77;;;8.95;;
37231;SDS011;23125;48.156;15.954;2022-12-07T08:46:38;26.30;;;11.98;;
37231;SDS011;23125;48.156;15.954;2022-12-07T08:49:14;12.65;;;7.70;;
37231;SDS011;23125;48.156;15.954;2022-12-07T08:51:45;12.55;;;8.23;;
37231;SDS011;23125;48.156;15.954;2022-12-07T08:54:15;16.85;;;8.85;;
37231;SDS011;23125;48.156;15.954;2022-12-07T08:56:44;22.15;;;10.55;;
37231;SDS011;23125;48.156;15.954;2022-12-07T08:59:12;13.68;;;6.90;;
37231;SDS011;23125;48.156;15.954;2022-12-07T09:01:42;14.13;;;8.38;;
37231;SDS011;23125;48.156;15.954;2022-12-07T09:04:08;18.35;;;10.23;;
37231;SDS011;23125;48.156;15.954;2022-12-07T09:06:34;25.23;;;12.50;;
37231;SDS011;23125;48.156;15.954;2022-12-07T09:09:00;17.40;;;8.77;;
37231;SDS011;23125;48.156;15.954;2022-12-07T09:11:27;14.38;;;8.65;;
37231;SDS011;23125;48.156;15.954;2022-12-07T09:13:53;9.15;;;6.97;;
37231;SDS011;23125;48.156;15.954;2022-12-07T09:16:18;7.72;;;5.53;;
37231;SDS011;23125;48.156;15.954;2022-12-07T09:18:44;10.23;;;6.35;;
37231;SDS011;23125;48.156;15.954;2022-12-07T09:21:10;6.88;;;4.80;;
37231;SDS011;23125;48.156;15.954;2022-12-07T09:23:36;8.98;;;5.88;;
37231;SDS011;23125;48.156;15.954;2022-12-07T09:26:02;9.57;;;6.00;;
37231;SDS011;23125;48.156;15.954;2022-12-07T09:28:30;7.45;;;5.25;;
37231;SDS011;23125;48.156;15.954;2022-12-07T09:30:56;6.05;;;4.57;;
37231;SDS011;23125;48.156;15.954;2022-12-07T09:33:22;8.50;;;4.80;;
37231;SDS011;23125;48.156;15.954;2022-12-07T09:35:48;7.28;;;5.20;;
37231;SDS011;23125;48.156;15.954;2022-12-07T09:38:16;7.93;;;5.35;;
37231;SDS011;23125;48.156;15.954;2022-12-07T09:40:43;7.28;;;5.18;;
37231;SDS011;23125;48.156;15.954;2022-12-07T09:43:17;8.13;;;5.00;;
37231;SDS011;23125;48.156;15.954;2022-12-07T09:45:46;8.57;;;5.03;;
37231;SDS011;23125;48.156;15.954;2022-12-07T09:48:18;5.85;;;4.40;;
37231;SDS011;23125;48.156;15.954;2022-12-07T09:50:47;6.95;;;5.15;;
37231;SDS011;23125;48.156;15.954;2022-12-07T09:53:16;6.68;;;4.97;;
37231;SDS011;23125;48.156;15.954;2022-12-07T09:55:45;8.07;;;5.03;;
37231;SDS011;23125;48.156;15.954;2022-12-07T09:58:44;8.10;;;5.00;;
37231;SDS011;23125;48.156;15.954;2022-12-07T10:01:13;7.90;;;5.45;;
37231;SDS011;23125;48.156;15.954;2022-12-07T10:03:50;7.90;;;5.20;;
37231;SDS011;23125;48.156;15.954;2022-12-07T10:06:18;8.15;;;5.75;;
37231;SDS011;23125;48.156;15.954;2022-12-07T10:08:44;8.57;;;5.88;;
37231;SDS011;23125;48.156;15.954;2022-12-07T10:11:10;8.50;;;5.30;;
37231;SDS011;23125;48.156;15.954;2022-12-07T10:13:38;10.80;;;7.47;;
37231;SDS011;23125;48.156;15.954;2022-12-07T10:16:06;10.10;;;6.47;;
37231;SDS011;23125;48.156;15.954;2022-12-07T10:18:53;8.40;;;5.78;;
37231;SDS011;23125;48.156;15.954;2022-12-07T10:21:23;7.35;;;5.25;;
37231;SDS011;23125;48.156;15.954;2022-12-07T10:26:51;6.78;;;4.97;;
37231;SDS011;23125;48.156;15.954;2022-12-07T10:31:50;10.27;;;7.45;;
37231;SDS011;23125;48.156;15.954;2022-12-07T10:34:24;13.38;;;7.68;;
37231;SDS011;23125;48.156;15.954;2022-12-07T10:36:51;14.57;;;8.00;;
37231;SDS011;23125;48.156;15.954;2022-12-07T10:39:19;9.57;;;6.55;;
37231;SDS011;23125;48.156;15.954;2022-12-07T10:44:29;7.20;;;5.10;;
37231;SDS011;23125;48.156;15.954;2022-12-07T10:52:34;6.93;;;4.57;;
37231;SDS011;23125;48.156;15.954;2022-12-07T10:55:08;8.02;;;4.95;;
37231;SDS011;23125;48.156;15.954;2022-12-07T11:00:24;5.80;;;4.75;;
37231;SDS011;23125;48.156;15.954;2022-12-07T11:13:41;7.43;;;5.72;;
37231;SDS011;23125;48.156;15.954;2022-12-07T11:16:23;7.28;;;4.25;;
37231;SDS011;23125;48.156;15.954;2022-12-07T11:19:20;8.27;;;5.78;;
37231;SDS011;23125;48.156;15.954;2022-12-07T11:25:02;7.88;;;5.07;;
37231;SDS011;23125;48.156;15.954;2022-12-07T11:30:33;9.88;;;6.50;;
37231;SDS011;23125;48.156;15.954;2022-12-07T11:33:10;9.05;;;5.90;;
37231;SDS011;23125;48.156;15.954;2022-12-07T11:36:01;7.55;;;6.43;;
37231;SDS011;23125;48.156;15.954;2022-12-07T11:38:46;6.68;;;5.30;;
37231;SDS011;23125;48.156;15.954;2022-12-07T11:41:14;7.25;;;4.88;;
37231;SDS011;23125;48.156;15.954;2022-12-07T11:46:16;7.68;;;5.43;;
37231;SDS011;23125;48.156;15.954;2022-12-07T11:48:55;8.07;;;4.82;;
37231;SDS011;23125;48.156;15.954;2022-12-07T11:51:24;6.60;;;4.72;;
37231;SDS011;23125;48.156;15.954;2022-12-07T11:53:54;6.35;;;4.55;;
37231;SDS011;23125;48.156;15.954;2022-12-07T11:56:27;8.52;;;5.18;;
37231;SDS011;23125;48.156;15.954;2022-12-07T11:58:58;6.72;;;4.70;;
37231;SDS011;23125;48.156;15.954;2022-12-07T12:06:57;8.48;;;5.55;;
37231;SDS011;23125;48.156;15.954;2022-12-07T12:09:46;8.25;;;5.53;;
37231;SDS011;23125;48.156;15.954;2022-12-07T12:12:37;9.18;;;6.30;;
37231;SDS011;23125;48.156;15.954;2022-12-07T12:25:41;8.23;;;5.72;;
37231;SDS011;23125;48.156;15.954;2022-12-07T12:31:07;8.52;;;6.18;;
37231;SDS011;23125;48.156;15.954;2022-12-07T12:33:35;9.45;;;6.28;;
37231;SDS011;23125;48.156;15.954;2022-12-07T12:47:00;12.00;;;7.60;;
37231;SDS011;23125;48.156;15.954;2022-12-07T12:50:10;9.98;;;6.57;;
37231;SDS011;23125;48.156;15.954;2022-12-07T12:52:49;11.52;;;6.72;;
37231;SDS011;23125;48.156;15.954;2022-12-07T12:55:20;10.02;;;6.30;;
37231;SDS011;23125;48.156;15.954;2022-12-07T13:04:00;8.52;;;5.65;;
37231;SDS011;23125;48.156;15.954;2022-12-07T13:08:54;8.27;;;5.80;;
37231;SDS011;23125;48.156;15.954;2022-12-07T13:11:29;8.82;;;5.95;;
37231;SDS011;23125;48.156;15.954;2022-12-07T13:17:01;8.65;;;6.10;;
37231;SDS011;23125;48.156;15.954;2022-12-07T13:20:19;10.50;;;6.00;;
37231;SDS011;23125;48.156;15.954;2022-12-07T13:25:28;8.10;;;5.57;;
37231;SDS011;23125;48.156;15.954;2022-12-07T13:28:07;8.80;;;5.97;;
37231;SDS011;23125;48.156;15.954;2022-12-07T13:30:43;11.88;;;5.75;;
37231;SDS011;23125;48.156;15.954;2022-12-07T13:33:12;10.38;;;5.70;;
37231;SDS011;23125;48.156;15.954;2022-12-07T13:35:40;8.35;;;5.88;;
37231;SDS011;23125;48.156;15.954;2022-12-07T13:38:15;9.60;;;6.72;;
37231;SDS011;23125;48.156;15.954;2022-12-07T13:43:44;17.60;;;9.75;;
37231;SDS011;23125;48.156;15.954;2022-12-07T13:46:19;14.27;;;8.98;;
37231;SDS011;23125;48.156;15.954;2022-12-07T13:48:50;22.80;;;11.63;;
37231;SDS011;23125;48.156;15.954;2022-12-07T13:51:27;18.15;;;9.77;;
37231;SDS011;23125;48.156;15.954;2022-12-07T13:53:59;18.70;;;9.73;;
37231;SDS011;23125;48.156;15.954;2022-12-07T13:56:36;21.60;;;11.40;;
37231;SDS011;23125;48.156;15.954;2022-12-07T13:59:05;17.88;;;10.02;;
37231;SDS011;23125;48.156;15.954;2022-12-07T14:01:42;15.73;;;9.13;;
37231;SDS011;23125;48.156;15.954;2022-12-07T14:06:57;13.57;;;8.02;;
37231;SDS011;23125;48.156;15.954;2022-12-07T14:09:26;20.40;;;10.98;;
37231;SDS011;23125;48.156;15.954;2022-12-07T14:11:54;15.70;;;8.98;;
37231;SDS011;23125;48.156;15.954;2022-12-07T14:14:23;10.93;;;7.93;;
37231;SDS011;23125;48.156;15.954;2022-12-07T14:17:00;21.70;;;11.98;;
37231;SDS011;23125;48.156;15.954;2022-12-07T14:22:26;16.05;;;9.77;;
37231;SDS011;23125;48.156;15.954;2022-12-07T14:27:51;14.15;;;8.95;;
37231;SDS011;23125;48.156;15.954;2022-12-07T14:30:28;12.13;;;7.93;;
37231;SDS011;23125;48.156;15.954;2022-12-07T14:33:00;137.75;;;20.15;;
37231;SDS011;23125;48.156;15.954;2022-12-07T14:35:28;26.65;;;10.77;;
37231;SDS011;23125;48.156;15.954;2022-12-07T14:37:55;19.10;;;9.65;;
37231;SDS011;23125;48.156;15.954;2022-12-07T14:40:22;12.10;;;8.48;;
37231;SDS011;23125;48.156;15.954;2022-12-07T14:43:00;14.30;;;8.68;;
37231;SDS011;23125;48.156;15.954;2022-12-07T14:45:27;11.43;;;8.23;;
37231;SDS011;23125;48.156;15.954;2022-12-07T14:47:53;14.52;;;8.93;;
37231;SDS011;23125;48.156;15.954;2022-12-07T14:50:20;16.25;;;9.90;;
37231;SDS011;23125;48.156;15.954;2022-12-07T14:52:50;15.45;;;9.95;;
37231;SDS011;23125;48.156;15.954;2022-12-07T14:55:25;14.00;;;9.05;;
37231;SDS011;23125;48.156;15.954;2022-12-07T14:57:53;12.38;;;7.90;;
37231;SDS011;23125;48.156;15.954;2022-12-07T15:00:20;16.42;;;10.07;;
37231;SDS011;23125;48.156;15.954;2022-12-07T15:02:48;13.43;;;8.55;;
37231;SDS011;23125;48.156;15.954;2022-12-07T15:05:14;11.50;;;8.05;;
37231;SDS011;23125;48.156;15.954;2022-12-07T15:07:41;12.43;;;8.38;;
37231;SDS011;23125;48.156;15.954;2022-12-07T15:10:21;11.90;;;8.07;;
37231;SDS011;23125;48.156;15.954;2022-12-07T15:12:49;12.80;;;8.20;;
37231;SDS011;23125;48.156;15.954;2022-12-07T15:15:15;12.20;;;8.15;;
37231;SDS011;23125;48.156;15.954;2022-12-07T15:17:42;13.27;;;8.90;;
37231;SDS011;23125;48.156;15.954;2022-12-07T15:20:10;10.82;;;7.90;;
37231;SDS011;23125;48.156;15.954;2022-12-07T15:22:38;21.58;;;13.90;;
37231;SDS011;23125;48.156;15.954;2022-12-07T15:25:04;35.95;;;18.52;;
37231;SDS011;23125;48.156;15.954;2022-12-07T15:27:31;15.05;;;10.05;;
37231;SDS011;23125;48.156;15.954;2022-12-07T15:29:57;18.63;;;12.13;;
37231;SDS011;23125;48.156;15.954;2022-12-07T15:32:23;13.30;;;8.52;;
37231;SDS011;23125;48.156;15.954;2022-12-07T15:34:48;10.55;;;6.82;;
37231;SDS011;23125;48.156;15.954;2022-12-07T15:37:15;10.68;;;6.55;;
37231;SDS011;23125;48.156;15.954;2022-12-07T15:39:41;11.32;;;7.30;;
37231;SDS011;23125;48.156;15.954;2022-12-07T15:42:07;14.20;;;8.30;;
37231;SDS011;23125;48.156;15.954;2022-12-07T15:44:33;16.92;;;9.43;;
37231;SDS011;23125;48.156;15.954;2022-12-07T15:47:17;13.60;;;7.78;;
37231;SDS011;23125;48.156;15.954;2022-12-07T15:49:43;12.60;;;8.05;;
37231;SDS011;23125;48.156;15.954;2022-12-07T15:52:09;18.92;;;10.77;;
37231;SDS011;23125;48.156;15.954;2022-12-07T15:54:35;24.60;;;12.07;;
37231;SDS011;23125;48.156;15.954;2022-12-07T15:57:01;19.63;;;10.90;;
37231;SDS011;23125;48.156;15.954;2022-12-07T15:59:27;16.17;;;9.10;;
37231;SDS011;23125;48.156;15.954;2022-12-07T16:01:54;15.48;;;7.32;;
37231;SDS011;23125;48.156;15.954;2022-12-07T16:04:20;14.88;;;7.93;;
37231;SDS011;23125;48.156;15.954;2022-12-07T16:06:46;16.20;;;8.43;;
37231;SDS011;23125;48.156;15.954;2022-12-07T16:09:12;21.98;;;10.68;;
37231;SDS011;23125;48.156;15.954;2022-12-07T16:11:38;15.20;;;8.38;;
37231;SDS011;23125;48.156;15.954;2022-12-07T16:14:04;20.95;;;9.93;;
37231;SDS011;23125;48.156;15.954;2022-12-07T16:16:30;13.70;;;8.32;;
37231;SDS011;23125;48.156;15.954;2022-12-07T16:18:57;13.95;;;8.30;;
37231;SDS011;23125;48.156;15.954;2022-12-07T16:21:23;17.33;;;8.85;;
37231;SDS011;23125;48.156;15.954;2022-12-07T16:23:49;12.07;;;7.57;;
37231;SDS011;23125;48.156;15.954;2022-12-07T16:26:16;13.00;;;7.80;;
37231;SDS011;23125;48.156;15.954;2022-12-07T16:28:44;13.43;;;6.78;;
37231;SDS011;23125;48.156;15.954;2022-12-07T16:31:14;12.02;;;6.78;;
37231;SDS011;23125;48.156;15.954;2022-12-07T16:33:41;13.65;;;8.40;;
37231;SDS011;23125;48.156;15.954;2022-12-07T16:36:09;11.25;;;7.00;;
37231;SDS011;23125;48.156;15.954;2022-12-07T16:38:36;13.50;;;7.43;;
37231;SDS011;23125;48.156;15.954;2022-12-07T16:41:03;10.80;;;6.93;;